Time;durP1;ratioP1;P1;durP2;ratioP2;P2;SDS_P1;SDS_P2;PMS_P1;PMS_P2;Temp;Humidity;BMP_temperature;BMP_pressure;BME280_temperature;BME280_humidity;BME280_pressure;Samples;Min_cycle;Max_cycle;Signal;HPM_P1;HPM_P2
2023/03/12 00:02:26;;;;;;;0.60;0.20;;;21.40;33.30;;;;;;4980294;28;20089;-58
2023/03/12 00:04:54;;;;;;;0.30;0.25;;;21.40;33.30;;;;;;4973048;28;20153;-58
2023/03/12 00:07:21;;;;;;;0.00;0.00;;;21.40;33.30;;;;;;4973773;28;20415;-59
2023/03/12 00:09:48;;;;;;;0.10;0.10;;;21.40;33.30;;;;;;4973495;28;20155;-59
2023/03/12 00:12:15;;;;;;;0.10;0.10;;;21.40;33.30;;;;;;4973743;28;20512;-59
2023/03/12 00:14:42;;;;;;;0.10;0.10;;;21.40;33.30;;;;;;4973635;28;20570;-59
2023/03/12 00:17:09;;;;;;;0.10;0.10;;;21.40;33.40;;;;;;4974336;28;20064;-58
2023/03/12 00:19:36;;;;;;;0.10;0.10;;;21.30;33.30;;;;;;4976233;28;20062;-59
2023/03/12 00:22:04;;;;;;;0.10;0.10;;;21.40;33.40;;;;;;4977383;28;20061;-59
2023/03/12 00:24:31;;;;;;;0.57;0.10;;;21.40;33.40;;;;;;4975953;28;20050;-59
2023/03/12 00:26:58;;;;;;;0.10;0.10;;;21.40;33.40;;;;;;4976155;28;20090;-59
2023/03/12 00:29:25;;;;;;;0.30;0.20;;;21.40;33.50;;;;;;4976330;28;20065;-59
2023/03/12 00:31:53;;;;;;;0.20;0.10;;;21.40;33.50;;;;;;4992039;28;20046;-58
2023/03/12 00:34:20;;;;;;;0.32;0.10;;;21.40;33.50;;;;;;4996000;28;20410;-59
2023/03/12 00:36:47;;;;;;;0.55;0.15;;;21.40;33.50;;;;;;4995808;28;20054;-58
2023/03/12 00:39:14;;;;;;;0.10;0.10;;;21.40;33.50;;;;;;4979192;28;20415;-59
2023/03/12 00:41:41;;;;;;;0.15;0.15;;;21.40;33.50;;;;;;4996775;28;20491;-59
2023/03/12 00:44:08;;;;;;;0.20;0.15;;;21.40;33.50;;;;;;4995654;28;20050;-59
2023/03/12 00:46:35;;;;;;;0.45;0.10;;;21.40;33.50;;;;;;4995821;28;20050;-59
2023/03/12 00:49:02;;;;;;;0.10;0.10;;;21.40;33.50;;;;;;4996201;28;20050;-58
2023/03/12 00:51:29;;;;;;;0.30;0.30;;;21.40;33.50;;;;;;4996203;28;20503;-59
2023/03/12 00:53:56;;;;;;;0.08;0.08;;;21.40;33.40;;;;;;4996069;28;20553;-58
2023/03/12 00:56:23;;;;;;;0.10;0.10;;;21.40;33.40;;;;;;4995210;28;20060;-59
2023/03/12 00:58:50;;;;;;;0.28;0.20;;;21.40;33.40;;;;;;4978930;28;20395;-59
2023/03/12 01:01:18;;;;;;;0.75;0.10;;;21.40;33.40;;;;;;4995440;28;20054;-59
2023/03/12 01:03:46;;;;;;;0.20;0.20;;;21.40;34.00;;;;;;4993473;28;20061;-58
2023/03/12 01:06:13;;;;;;;0.15;0.15;;;21.40;33.40;;;;;;4975976;28;20516;-59
2023/03/12 01:08:40;;;;;;;0.20;0.20;;;21.40;33.40;;;;;;4975737;28;20057;-59
2023/03/12 01:11:11;;;;;;;0.32;0.20;;;21.40;33.40;;;;;;4976139;28;20047;-58
2023/03/12 01:13:38;;;;;;;0.15;0.15;;;21.30;33.40;;;;;;4976372;28;20043;-59
2023/03/12 01:16:06;;;;;;;0.20;0.08;;;21.30;33.40;;;;;;4975301;28;20057;-58
2023/03/12 01:18:33;;;;;;;0.10;0.10;;;21.40;33.50;;;;;;4975444;28;20050;-59
2023/03/12 01:21:00;;;;;;;0.15;0.15;;;21.30;33.40;;;;;;4975691;28;20141;-59
2023/03/12 01:23:27;;;;;;;0.10;0.10;;;21.40;33.50;;;;;;4975272;28;20051;-59
2023/03/12 01:25:54;;;;;;;0.20;0.20;;;21.30;33.50;;;;;;4975013;28;20051;-59
2023/03/12 01:28:23;;;;;;;0.30;0.20;;;21.30;33.40;;;;;;4958235;28;20075;-59
2023/03/12 01:30:50;;;;;;;0.05;0.03;;;21.30;33.40;;;;;;4975987;28;20057;-58
2023/03/12 01:33:17;;;;;;;0.13;0.10;;;21.30;33.40;;;;;;4958810;28;20511;-58
2023/03/12 01:35:44;;;;;;;0.10;0.10;;;21.30;33.40;;;;;;4975961;28;20050;-59
2023/03/12 01:38:14;;;;;;;0.15;0.10;;;21.30;33.50;;;;;;4974931;28;20047;-59
2023/03/12 01:40:42;;;;;;;0.05;0.05;;;21.30;33.50;;;;;;4980419;28;20050;-59
2023/03/12 01:43:30;;;;;;;0.32;0.28;;;21.30;33.50;;;;;;4994364;28;20447;-59
2023/03/12 01:46:31;;;;;;;0.10;0.10;;;21.30;33.50;;;;;;4994972;28;20414;-59
2023/03/12 01:49:20;;;;;;;0.10;0.10;;;21.30;33.50;;;;;;4994365;28;20054;-59
2023/03/12 01:51:54;;;;;;;0.00;0.00;;;21.30;33.50;;;;;;4978919;28;20056;-59
2023/03/12 01:54:39;;;;;;;0.10;0.10;;;21.30;33.50;;;;;;4994572;28;20046;-59
2023/03/12 01:57:12;;;;;;;0.30;0.20;;;21.30;33.50;;;;;;4995288;28;20054;-59
2023/03/12 01:59:48;;;;;;;0.10;0.10;;;21.30;33.50;;;;;;4994084;28;20051;-59
2023/03/12 02:02:17;;;;;;;0.10;0.10;;;21.30;33.60;;;;;;4994616;28;20124;-59
2023/03/12 02:04:46;;;;;;;0.00;0.00;;;21.30;33.60;;;;;;4977407;28;20085;-59
2023/03/12 02:07:15;;;;;;;0.30;0.30;;;21.30;33.60;;;;;;4994360;28;20503;-59
2023/03/12 02:09:46;;;;;;;0.20;0.20;;;21.30;33.60;;;;;;4994146;28;20471;-59
2023/03/12 02:12:15;;;;;;;0.10;0.10;;;21.30;33.60;;;;;;4977620;28;20055;-59
2023/03/12 02:14:42;;;;;;;0.30;0.20;;;21.30;33.60;;;;;;4976613;28;20121;-59
2023/03/12 02:17:10;;;;;;;0.15;0.15;;;21.30;33.60;;;;;;4994036;28;20475;-59
2023/03/12 02:20:11;;;;;;;0.13;0.13;;;21.30;33.60;;;;;;4993819;28;20054;-59
2023/03/12 02:22:42;;;;;;;0.25;0.25;;;21.30;33.70;;;;;;4981619;28;20047;-59
2023/03/12 02:25:38;;;;;;;0.30;0.30;;;21.30;33.60;;;;;;4993777;28;20061;-59
2023/03/12 02:28:09;;;;;;;0.10;0.10;;;21.30;34.20;;;;;;4993891;28;20050;-59
2023/03/12 02:30:37;;;;;;;0.22;0.22;;;21.30;33.60;;;;;;4983858;28;20451;-59
2023/03/12 02:33:07;;;;;;;0.20;0.13;;;21.20;33.60;;;;;;4974175;28;20427;-59
2023/03/12 02:35:35;;;;;;;0.40;0.13;;;21.20;33.60;;;;;;4974045;28;20057;-58
2023/03/12 02:38:22;;;;;;;0.28;0.20;;;21.20;33.60;;;;;;4973979;28;20097;-59
2023/03/12 02:40:50;;;;;;;0.20;0.20;;;21.30;33.70;;;;;;4959631;28;20127;-59
2023/03/12 02:43:20;;;;;;;0.22;0.20;;;21.20;33.60;;;;;;4974514;28;20057;-59
2023/03/12 02:45:48;;;;;;;0.32;0.00;;;21.30;33.70;;;;;;4974375;28;20061;-59
2023/03/12 02:48:15;;;;;;;0.22;0.10;;;21.20;33.70;;;;;;4973494;28;20496;-59
2023/03/12 02:50:42;;;;;;;0.20;0.10;;;21.20;33.70;;;;;;4973538;28;20066;-59
2023/03/12 02:53:09;;;;;;;0.20;0.15;;;21.30;33.70;;;;;;4974476;28;20407;-58
2023/03/12 02:55:36;;;;;;;0.10;0.10;;;21.30;33.70;;;;;;4956815;28;20454;-59
2023/03/12 02:58:03;;;;;;;0.10;0.10;;;21.30;33.70;;;;;;4973921;28;20057;-59
2023/03/12 03:00:31;;;;;;;0.10;0.10;;;21.30;33.70;;;;;;4974215;28;20090;-58
2023/03/12 03:03:00;;;;;;;0.20;0.20;;;21.30;33.70;;;;;;4974145;28;20050;-59
2023/03/12 03:05:27;;;;;;;0.10;0.10;;;21.30;33.70;;;;;;4973762;28;20133;-59
2023/03/12 03:07:54;;;;;;;0.43;0.20;;;21.30;33.70;;;;;;4974175;28;20125;-59
2023/03/12 03:10:21;;;;;;;0.20;0.20;;;21.30;33.70;;;;;;4956778;28;20488;-59
2023/03/12 03:12:48;;;;;;;0.10;0.10;;;21.30;33.70;;;;;;4973543;28;20047;-59
2023/03/12 03:15:16;;;;;;;0.10;0.10;;;21.30;33.70;;;;;;4973716;28;20058;-59
2023/03/12 03:17:43;;;;;;;0.32;0.20;;;21.30;33.70;;;;;;4973641;28;20054;-59
2023/03/12 03:20:10;;;;;;;0.20;0.20;;;21.30;33.70;;;;;;4973439;28;20461;-59
2023/03/12 03:22:38;;;;;;;0.10;0.10;;;21.30;33.60;;;;;;4974183;28;20137;-59
2023/03/12 03:25:07;;;;;;;0.10;0.10;;;21.30;33.70;;;;;;4973497;28;20407;-59
2023/03/12 03:27:34;;;;;;;0.13;0.13;;;21.30;33.70;;;;;;4972967;28;20061;-58
2023/03/12 03:30:01;;;;;;;0.10;0.10;;;21.20;33.60;;;;;;4973852;28;20404;-59
2023/03/12 03:32:28;;;;;;;0.10;0.10;;;21.30;33.70;;;;;;4974511;28;20372;-59
2023/03/12 03:34:55;;;;;;;0.15;0.15;;;21.30;33.60;;;;;;4973790;28;20062;-59
2023/03/12 03:37:22;;;;;;;0.28;0.20;;;21.20;33.60;;;;;;4973676;28;20098;-59
2023/03/12 03:39:49;;;;;;;0.17;0.17;;;21.20;33.60;;;;;;4973505;28;20055;-59
2023/03/12 03:42:16;;;;;;;0.20;0.20;;;21.20;33.60;;;;;;4973040;28;20065;-59
2023/03/12 03:44:44;;;;;;;0.05;0.05;;;21.20;33.60;;;;;;4956543;28;20051;-59
2023/03/12 03:47:11;;;;;;;0.10;0.10;;;21.20;33.60;;;;;;4974101;28;20053;-59
2023/03/12 03:49:38;;;;;;;0.10;0.10;;;21.20;33.60;;;;;;4955577;28;20487;-59
2023/03/12 03:52:06;;;;;;;0.20;0.20;;;21.20;33.60;;;;;;4975166;28;20054;-59
2023/03/12 03:54:33;;;;;;;0.10;0.10;;;21.20;33.60;;;;;;4977703;28;20054;-59
2023/03/12 03:57:00;;;;;;;0.28;0.28;;;21.20;33.60;;;;;;4959983;28;20142;-59
2023/03/12 03:59:28;;;;;;;0.10;0.10;;;21.20;33.60;;;;;;4977181;28;20089;-59
2023/03/12 04:01:55;;;;;;;0.10;0.10;;;21.20;33.60;;;;;;4976909;28;20055;-59
2023/03/12 04:04:22;;;;;;;0.20;0.20;;;21.20;33.60;;;;;;4976821;28;20096;-59
2023/03/12 04:06:49;;;;;;;0.28;0.28;;;21.20;33.60;;;;;;4960239;28;20046;-59
2023/03/12 04:09:16;;;;;;;0.30;0.20;;;21.20;33.60;;;;;;4977777;28;20141;-59
2023/03/12 04:11:43;;;;;;;0.20;0.20;;;21.10;33.50;;;;;;4977228;28;20062;-59
2023/03/12 04:14:10;;;;;;;0.25;0.25;;;21.20;33.70;;;;;;4976381;28;20057;-59
2023/03/12 04:16:37;;;;;;;0.30;0.30;;;21.20;33.60;;;;;;4976442;28;20046;-59
2023/03/12 04:19:04;;;;;;;0.17;0.17;;;21.20;33.60;;;;;;4959104;28;20053;-59
2023/03/12 04:21:31;;;;;;;0.20;0.20;;;21.20;33.60;;;;;;4977068;28;20051;-59
2023/03/12 04:23:59;;;;;;;0.25;0.25;;;21.20;33.60;;;;;;4976230;28;20129;-59
2023/03/12 04:26:26;;;;;;;0.85;0.43;;;21.20;33.60;;;;;;4958954;28;20061;-59
2023/03/12 04:28:53;;;;;;;0.47;0.22;;;21.20;33.60;;;;;;4976473;28;20051;-59
2023/03/12 04:31:20;;;;;;;0.20;0.20;;;21.10;33.60;;;;;;4976926;28;20050;-58
2023/03/12 04:33:47;;;;;;;0.35;0.35;;;21.10;33.60;;;;;;4976246;28;20053;-59
2023/03/12 04:36:15;;;;;;;0.20;0.17;;;21.10;33.60;;;;;;4960004;28;20053;-58
2023/03/12 04:38:42;;;;;;;0.45;0.20;;;21.10;33.60;;;;;;4976894;28;20057;-59
2023/03/12 04:41:12;;;;;;;0.20;0.20;;;21.10;33.60;;;;;;4976737;28;20050;-58
2023/03/12 04:43:39;;;;;;;0.47;0.40;;;21.10;33.70;;;;;;4976776;28;20059;-59
2023/03/12 04:46:07;;;;;;;0.30;0.30;;;21.10;33.70;;;;;;4975919;28;20073;-59
2023/03/12 04:48:35;;;;;;;0.68;0.30;;;21.10;33.60;;;;;;4976656;28;20050;-58
2023/03/12 04:51:03;;;;;;;0.28;0.20;;;21.10;33.70;;;;;;4976693;28;20086;-59
2023/03/12 04:53:31;;;;;;;0.32;0.20;;;21.10;33.60;;;;;;4976732;28;20050;-59
2023/03/12 04:55:58;;;;;;;0.30;0.30;;;21.10;33.60;;;;;;4976731;28;20054;-60
2023/03/12 04:58:25;;;;;;;0.63;0.30;;;21.10;33.60;;;;;;4974968;28;20093;-59
2023/03/12 05:00:52;;;;;;;0.25;0.25;;;21.10;33.70;;;;;;4975948;28;20058;-58
2023/03/12 05:03:20;;;;;;;0.22;0.20;;;21.10;33.70;;;;;;4975920;28;20090;-59
2023/03/12 05:05:47;;;;;;;0.35;0.30;;;21.10;33.70;;;;;;4974756;28;20057;-59
2023/03/12 05:08:14;;;;;;;0.95;0.60;;;21.10;33.70;;;;;;4975711;28;20081;-59
2023/03/12 05:10:44;;;;;;;0.35;0.22;;;21.10;33.70;;;;;;4975351;28;20057;-59
2023/03/12 05:13:19;;;;;;;0.20;0.20;;;21.10;33.70;;;;;;4976083;28;20043;-59
2023/03/12 05:15:49;;;;;;;0.40;0.13;;;21.10;33.70;;;;;;4975784;28;20086;-58
2023/03/12 05:18:16;;;;;;;0.20;0.20;;;21.10;33.70;;;;;;4975093;28;20053;-59
2023/03/12 05:20:43;;;;;;;0.20;0.20;;;21.10;33.70;;;;;;4976225;28;20058;-59
2023/03/12 05:23:11;;;;;;;0.30;0.30;;;21.10;33.70;;;;;;4975956;28;20047;-59
2023/03/12 05:25:40;;;;;;;0.70;0.28;;;21.10;33.70;;;;;;4975912;28;20059;-59
2023/03/12 05:28:07;;;;;;;0.57;0.40;;;21.10;33.60;;;;;;4974989;28;20133;-59
2023/03/12 05:30:34;;;;;;;0.38;0.30;;;21.10;33.60;;;;;;4974718;28;20567;-59
2023/03/12 05:33:01;;;;;;;0.30;0.30;;;21.10;33.60;;;;;;4975669;28;20051;-59
2023/03/12 05:35:28;;;;;;;0.52;0.52;;;21.10;33.50;;;;;;4975319;28;20051;-59
2023/03/12 05:37:55;;;;;;;0.95;0.47;;;21.10;33.40;;;;;;4958833;28;20311;-58
2023/03/12 05:40:22;;;;;;;1.42;1.20;;;21.10;33.20;;;;;;4958536;28;20056;-58
2023/03/12 05:42:49;;;;;;;0.50;0.50;;;21.10;33.10;;;;;;4975685;28;20408;-58
2023/03/12 05:45:18;;;;;;;0.77;0.57;;;21.00;33.10;;;;;;4974652;28;20145;-59
2023/03/12 05:47:45;;;;;;;0.80;0.50;;;21.00;33.10;;;;;;4974909;28;20073;-58
2023/03/12 05:50:15;;;;;;;0.75;0.60;;;21.00;33.10;;;;;;4974565;28;20057;-59
2023/03/12 05:52:42;;;;;;;2.67;0.57;;;21.00;33.10;;;;;;4975897;28;20463;-58
2023/03/12 05:55:09;;;;;;;1.60;0.70;;;21.00;33.10;;;;;;4974599;28;20142;-58
2023/03/12 05:57:36;;;;;;;1.35;0.80;;;21.00;33.00;;;;;;4957952;28;20171;-58
2023/03/12 06:00:04;;;;;;;0.77;0.75;;;21.00;33.00;;;;;;4974360;28;20085;-58
2023/03/12 06:02:31;;;;;;;1.23;0.95;;;21.10;33.00;;;;;;4975528;28;20054;-58
2023/03/12 06:04:58;;;;;;;1.00;0.93;;;21.10;33.00;;;;;;4974115;28;20059;-58
2023/03/12 06:07:26;;;;;;;1.00;1.00;;;21.10;32.90;;;;;;4974900;28;20054;-58
2023/03/12 06:09:53;;;;;;;1.30;1.17;;;21.10;32.90;;;;;;4974042;28;20054;-58
2023/03/12 06:12:20;;;;;;;1.70;1.33;;;21.20;32.90;;;;;;4975045;28;20062;-59
2023/03/12 06:14:47;;;;;;;0.82;0.80;;;21.20;32.80;;;;;;4973997;28;20202;-58
2023/03/12 06:17:14;;;;;;;1.15;1.05;;;21.20;32.70;;;;;;4974260;28;20057;-59
2023/03/12 06:19:42;;;;;;;1.25;1.23;;;21.30;32.70;;;;;;4974779;28;20133;-58
2023/03/12 06:22:09;;;;;;;1.92;1.60;;;21.30;33.20;;;;;;4974023;28;20070;-58
2023/03/12 06:24:36;;;;;;;1.45;1.10;;;21.30;32.60;;;;;;4973847;28;20496;-58
2023/03/12 06:27:04;;;;;;;1.73;1.63;;;21.40;32.50;;;;;;4957663;28;20130;-58
2023/03/12 06:29:31;;;;;;;1.58;1.40;;;21.40;32.50;;;;;;4973527;28;20057;-58
2023/03/12 06:31:58;;;;;;;2.10;1.77;;;21.40;32.40;;;;;;4974405;28;20054;-58
2023/03/12 06:34:26;;;;;;;1.65;1.55;;;21.50;32.40;;;;;;4974969;28;20109;-59
2023/03/12 06:36:53;;;;;;;1.70;1.60;;;21.50;32.20;;;;;;4956571;28;20078;-58
2023/03/12 06:39:20;;;;;;;1.67;1.55;;;21.60;32.20;;;;;;4974419;28;20047;-59
2023/03/12 06:41:47;;;;;;;2.00;1.80;;;21.60;32.10;;;;;;4984897;28;20050;-58
2023/03/12 06:44:14;;;;;;;2.40;1.98;;;21.60;32.00;;;;;;4993440;28;20058;-58
2023/03/12 06:46:43;;;;;;;2.22;1.92;;;21.70;32.00;;;;;;4992867;28;20137;-59
2023/03/12 06:49:10;;;;;;;2.30;2.10;;;21.70;31.90;;;;;;4993214;28;20054;-58
2023/03/12 06:51:37;;;;;;;2.55;2.35;;;21.70;31.80;;;;;;4993484;28;20061;-58
2023/03/12 06:54:04;;;;;;;2.33;2.10;;;21.80;31.70;;;;;;4960021;28;20046;-59
2023/03/12 06:56:32;;;;;;;1.77;1.67;;;21.90;31.70;;;;;;4992691;28;20050;-58
2023/03/12 06:58:59;;;;;;;2.90;2.17;;;21.90;31.60;;;;;;4992789;28;20058;-58
2023/03/12 07:01:26;;;;;;;3.40;2.58;;;21.90;31.50;;;;;;4993575;28;20065;-59
2023/03/12 07:03:53;;;;;;;1.80;1.70;;;22.00;31.50;;;;;;4994141;28;20129;-58
2023/03/12 07:06:23;;;;;;;2.70;2.45;;;22.00;31.40;;;;;;4992738;28;20050;-59
2023/03/12 07:08:51;;;;;;;3.28;2.92;;;22.00;31.20;;;;;;4993009;28;20050;-58
2023/03/12 07:11:18;;;;;;;3.55;2.40;;;22.10;31.20;;;;;;4993486;28;20133;-58
2023/03/12 07:13:46;;;;;;;3.47;2.40;;;22.10;31.10;;;;;;4992926;28;20046;-58
2023/03/12 07:16:13;;;;;;;3.47;2.50;;;22.10;31.00;;;;;;4992178;28;20581;-59
2023/03/12 07:18:41;;;;;;;2.85;2.63;;;22.20;31.00;;;;;;4993391;28;20054;-59
2023/03/12 07:21:08;;;;;;;3.28;2.47;;;22.20;30.90;;;;;;4993208;28;20085;-58
2023/03/12 07:23:35;;;;;;;3.22;2.30;;;22.20;30.80;;;;;;4993168;28;20499;-58
2023/03/12 07:26:04;;;;;;;2.58;2.38;;;22.30;30.70;;;;;;4993232;28;20441;-58
2023/03/12 07:28:31;;;;;;;4.85;2.90;;;22.30;30.70;;;;;;4999275;28;20046;-58
2023/03/12 07:31:03;;;;;;;3.17;2.72;;;22.30;30.60;;;;;;4999847;28;20155;-58
2023/03/12 07:33:30;;;;;;;3.40;2.53;;;22.40;30.50;;;;;;4999958;28;20054;-58
2023/03/12 07:35:58;;;;;;;3.25;2.58;;;22.40;30.50;;;;;;4999547;28;20054;-58
2023/03/12 07:38:26;;;;;;;2.83;2.60;;;22.40;30.40;;;;;;4981773;28;20066;-59
2023/03/12 07:40:56;;;;;;;2.47;2.28;;;22.50;30.40;;;;;;4999405;28;20060;-59
2023/03/12 07:43:24;;;;;;;3.67;2.53;;;22.50;30.20;;;;;;5000014;28;20050;-58
2023/03/12 07:45:51;;;;;;;2.50;2.30;;;22.50;30.20;;;;;;4998811;28;20407;-58
2023/03/12 07:48:18;;;;;;;3.03;2.60;;;22.50;30.10;;;;;;4999691;28;20127;-59
2023/03/12 07:50:46;;;;;;;3.42;2.78;;;22.60;30.10;;;;;;4999312;28;20046;-59
2023/03/12 07:53:14;;;;;;;3.63;2.97;;;22.50;30.00;;;;;;4999330;28;20066;-58
2023/03/12 07:55:44;;;;;;;2.65;2.28;;;22.60;30.00;;;;;;4999733;28;20068;-59
2023/03/12 07:58:12;;;;;;;3.05;2.38;;;22.60;30.00;;;;;;4998558;28;20054;-59
2023/03/12 08:00:40;;;;;;;2.50;2.30;;;22.60;30.00;;;;;;4998488;28;20053;-58
2023/03/12 08:03:07;;;;;;;2.67;2.47;;;22.60;29.90;;;;;;4982931;28;20065;-58
2023/03/12 08:05:35;;;;;;;2.30;2.10;;;22.60;29.90;;;;;;4981716;28;20430;-59
2023/03/12 08:08:02;;;;;;;2.90;2.65;;;22.70;29.90;;;;;;4982568;28;20083;-58
2023/03/12 08:10:30;;;;;;;2.80;2.40;;;22.70;29.80;;;;;;4999063;28;20137;-59
2023/03/12 08:12:57;;;;;;;2.05;1.83;;;22.70;29.80;;;;;;4999130;28;20062;-59
2023/03/12 08:15:24;;;;;;;2.25;2.05;;;22.70;29.70;;;;;;4999337;28;20046;-59
2023/03/12 08:17:51;;;;;;;2.42;2.20;;;22.70;29.70;;;;;;4998345;28;20050;-59
2023/03/12 08:20:18;;;;;;;2.63;2.42;;;22.70;29.60;;;;;;4998433;28;20521;-59
2023/03/12 08:22:45;;;;;;;2.35;2.15;;;22.70;29.60;;;;;;4998899;28;20487;-59
2023/03/12 08:25:12;;;;;;;1.80;1.70;;;22.80;29.60;;;;;;4999071;28;20050;-59
2023/03/12 08:27:40;;;;;;;2.03;1.92;;;22.80;29.50;;;;;;4999873;28;20411;-59
2023/03/12 08:30:08;;;;;;;2.42;2.10;;;22.80;29.90;;;;;;4998697;28;20082;-59
2023/03/12 08:32:35;;;;;;;2.47;1.80;;;22.80;29.40;;;;;;4999185;28;20108;-59
2023/03/12 08:35:04;;;;;;;2.10;1.90;;;22.80;29.40;;;;;;4998664;28;20487;-58
2023/03/12 08:37:31;;;;;;;2.20;1.90;;;22.90;29.40;;;;;;4999299;28;20053;-59
2023/03/12 08:39:59;;;;;;;2.00;1.88;;;22.90;29.40;;;;;;4996623;28;20058;-58
2023/03/12 08:42:26;;;;;;;2.72;1.92;;;22.90;29.30;;;;;;4996445;28;20410;-58
2023/03/12 08:44:53;;;;;;;1.83;1.70;;;22.90;29.30;;;;;;4995960;28;20125;-59
2023/03/12 08:47:20;;;;;;;1.83;1.73;;;23.00;29.30;;;;;;4995670;28;20046;-59
2023/03/12 08:49:47;;;;;;;2.15;1.98;;;23.00;29.30;;;;;;4995250;28;20422;-59
2023/03/12 08:52:15;;;;;;;2.30;2.10;;;23.00;29.20;;;;;;4995178;28;20054;-59
2023/03/12 08:54:42;;;;;;;2.08;1.73;;;23.00;29.20;;;;;;4994851;28;20129;-59
2023/03/12 08:57:09;;;;;;;1.63;1.52;;;23.00;29.10;;;;;;4996171;28;20052;-59
2023/03/12 08:59:36;;;;;;;1.63;1.40;;;23.00;28.90;;;;;;4994893;28;20129;-59
2023/03/12 09:02:04;;;;;;;1.40;1.27;;;23.00;28.90;;;;;;4995466;28;20137;-58
2023/03/12 09:04:31;;;;;;;1.60;1.50;;;23.10;28.90;;;;;;4995231;28;20133;-58
2023/03/12 09:07:00;;;;;;;1.80;1.70;;;23.10;28.80;;;;;;4995349;28;20141;-58
2023/03/12 09:09:27;;;;;;;1.30;1.20;;;23.10;28.80;;;;;;4995164;28;20177;-59
2023/03/12 09:11:55;;;;;;;1.80;1.67;;;23.10;28.70;;;;;;4995234;28;20138;-59
2023/03/12 09:14:22;;;;;;;1.58;1.48;;;23.10;28.70;;;;;;4995194;28;20050;-58
2023/03/12 09:17:09;;;;;;;1.70;1.60;;;23.20;28.70;;;;;;4995170;28;20549;-59
2023/03/12 09:19:36;;;;;;;1.45;1.35;;;23.20;28.50;;;;;;4994495;28;20054;-59
2023/03/12 09:22:03;;;;;;;1.50;1.40;;;23.20;28.50;;;;;;4995088;28;20089;-59
2023/03/12 09:24:30;;;;;;;1.27;1.17;;;23.20;28.50;;;;;;4995027;28;20058;-59
2023/03/12 09:26:58;;;;;;;1.08;1.08;;;23.20;28.50;;;;;;4994706;28;20058;-59
2023/03/12 09:29:25;;;;;;;1.08;1.08;;;23.20;28.50;;;;;;4994376;28;20053;-59
2023/03/12 09:31:52;;;;;;;1.30;1.20;;;23.20;28.50;;;;;;4973568;28;20051;-59
2023/03/12 09:34:19;;;;;;;2.20;1.23;;;23.20;28.50;;;;;;4975384;28;20467;-59
2023/03/12 09:36:46;;;;;;;1.13;1.13;;;23.30;28.50;;;;;;4975193;28;20505;-60
2023/03/12 09:39:13;;;;;;;1.27;1.05;;;23.30;28.50;;;;;;4975385;28;20047;-60
2023/03/12 09:41:46;;;;;;;1.63;1.40;;;23.30;28.50;;;;;;4975684;28;20047;-59
2023/03/12 09:44:33;;;;;;;1.05;1.00;;;23.30;28.40;;;;;;4974118;28;20043;-59
2023/03/12 09:47:11;;;;;;;1.58;1.20;;;23.30;28.40;;;;;;4974984;28;20384;-60
2023/03/12 09:49:47;;;;;;;1.25;1.15;;;23.30;28.20;;;;;;4980493;28;20097;-59
2023/03/12 09:52:28;;;;;;;1.23;1.10;;;23.30;28.20;;;;;;4977991;28;20051;-60
2023/03/12 09:55:13;;;;;;;1.83;1.40;;;23.40;28.20;;;;;;4994053;28;20050;-60
2023/03/12 09:57:42;;;;;;;0.98;0.90;;;23.40;28.10;;;;;;4977150;28;20520;-60
2023/03/12 10:00:16;;;;;;;2.28;1.23;;;23.40;28.10;;;;;;4978656;28;20057;-60
2023/03/12 10:03:08;;;;;;;1.35;1.20;;;23.40;28.10;;;;;;4974597;28;20503;-60
2023/03/12 10:06:00;;;;;;;1.40;1.27;;;23.40;28.00;;;;;;4974711;28;20083;-59
2023/03/12 10:08:57;;;;;;;1.92;1.23;;;23.50;28.00;;;;;;4973273;28;20503;-59
2023/03/12 10:11:54;;;;;;;1.40;0.90;;;23.50;28.00;;;;;;4975162;28;20126;-59
2023/03/12 10:14:36;;;;;;;0.95;0.95;;;23.50;28.00;;;;;;4974388;28;20065;-59
2023/03/12 10:17:40;;;;;;;1.30;1.20;;;23.50;27.90;;;;;;4974580;28;20049;-60
2023/03/12 10:20:43;;;;;;;1.67;1.00;;;23.50;27.90;;;;;;4973824;28;20066;-60
2023/03/12 10:23:26;;;;;;;1.08;1.00;;;23.60;27.90;;;;;;4973916;28;20050;-60
2023/03/12 10:26:25;;;;;;;0.85;0.82;;;23.60;27.90;;;;;;4974415;28;20043;-60
2023/03/12 10:29:09;;;;;;;0.98;0.95;;;23.60;27.80;;;;;;4975018;28;20126;-60
2023/03/12 10:31:49;;;;;;;1.23;0.70;;;23.70;27.80;;;;;;4974819;28;20054;-60
2023/03/12 10:34:24;;;;;;;0.70;0.70;;;23.70;27.80;;;;;;4974762;28;20126;-59
2023/03/12 10:36:56;;;;;;;0.80;0.80;;;23.70;27.80;;;;;;4957679;28;20474;-59
2023/03/12 10:39:23;;;;;;;1.00;1.00;;;23.70;27.70;;;;;;4975136;28;20050;-60
2023/03/12 10:41:51;;;;;;;4.90;0.90;;;23.70;27.60;;;;;;4973915;28;20059;-60
2023/03/12 10:44:24;;;;;;;0.75;0.60;;;23.70;27.70;;;;;;4973993;28;20047;-59
2023/03/12 10:47:05;;;;;;;0.82;0.82;;;23.70;27.60;;;;;;4974457;28;20505;-60
2023/03/12 10:49:36;;;;;;;0.80;0.80;;;23.70;27.60;;;;;;4974377;28;20297;-60
2023/03/12 10:52:16;;;;;;;1.10;0.90;;;23.70;27.70;;;;;;4974851;28;20069;-59
2023/03/12 10:54:52;;;;;;;0.95;0.80;;;23.80;27.60;;;;;;4974171;28;20055;-60
2023/03/12 10:57:20;;;;;;;0.73;0.73;;;23.80;27.60;;;;;;4974746;28;20133;-60
2023/03/12 10:59:49;;;;;;;1.17;0.90;;;23.80;27.70;;;;;;4973404;28;20050;-60
2023/03/12 11:02:34;;;;;;;0.90;0.90;;;23.80;27.60;;;;;;4973327;28;20053;-59
2023/03/12 11:05:17;;;;;;;0.80;0.80;;;23.80;27.50;;;;;;4974270;28;20072;-60
2023/03/12 11:07:44;;;;;;;1.23;0.90;;;23.90;27.50;;;;;;4974788;28;20051;-59
2023/03/12 11:10:17;;;;;;;0.65;0.63;;;23.90;27.50;;;;;;4974283;28;20129;-60
2023/03/12 11:13:03;;;;;;;0.77;0.77;;;23.90;27.50;;;;;;4974347;28;20054;-60
2023/03/12 11:15:39;;;;;;;0.77;0.77;;;23.90;27.40;;;;;;4974490;28;20514;-60
2023/03/12 11:18:25;;;;;;;0.75;0.75;;;23.90;27.40;;;;;;4974207;28;20510;-60
2023/03/12 11:20:55;;;;;;;0.95;0.75;;;23.90;27.50;;;;;;4973145;28;20496;-60
2023/03/12 11:23:26;;;;;;;0.65;0.60;;;23.90;27.50;;;;;;4972544;28;20134;-60
2023/03/12 11:26:03;;;;;;;0.70;0.70;;;23.90;27.50;;;;;;4974030;28;20074;-60
2023/03/12 11:28:37;;;;;;;0.60;0.60;;;23.90;27.20;;;;;;4974225;28;20518;-60
2023/03/12 11:31:12;;;;;;;1.05;0.50;;;23.90;27.90;;;;;;4974371;28;20568;-60
2023/03/12 11:33:39;;;;;;;1.30;0.73;;;23.90;27.40;;;;;;4974330;28;20051;-60
2023/03/12 11:36:38;;;;;;;0.63;0.60;;;24.00;27.40;;;;;;4973847;28;20081;-60
2023/03/12 11:39:30;;;;;;;0.55;0.52;;;24.00;27.40;;;;;;4974433;28;20046;-60
2023/03/12 11:42:26;;;;;;;0.70;0.70;;;24.00;27.40;;;;;;4974058;28;20149;-60
2023/03/12 11:45:17;;;;;;;0.70;0.70;;;24.00;27.30;;;;;;4974340;28;20086;-60
2023/03/12 11:48:24;;;;;;;0.80;0.80;;;24.00;27.20;;;;;;4973368;28;20058;-60
2023/03/12 11:51:15;;;;;;;0.70;0.70;;;24.10;27.40;;;;;;4973128;28;20042;-60
2023/03/12 11:54:00;;;;;;;1.10;0.70;;;24.10;27.40;;;;;;4921766;29;20138;-60
2023/03/12 11:56:48;;;;;;;1.00;0.80;;;24.10;27.30;;;;;;4955077;29;20077;-60
2023/03/12 11:59:38;;;;;;;1.00;0.88;;;24.10;27.30;;;;;;4954898;28;20130;-60
2023/03/12 12:02:35;;;;;;;1.40;0.82;;;24.10;27.30;;;;;;4940073;29;20055;-60
2023/03/12 12:05:19;;;;;;;0.57;0.57;;;24.10;27.20;;;;;;4954942;28;20058;-60
2023/03/12 12:08:23;;;;;;;1.10;0.65;;;24.10;27.30;;;;;;4937867;29;20051;-60
2023/03/12 12:11:21;;;;;;;0.60;0.60;;;24.10;27.10;;;;;;4966351;28;20057;-60
2023/03/12 12:14:15;;;;;;;0.60;0.50;;;24.10;27.10;;;;;;4995407;28;20042;-60
2023/03/12 12:17:04;;;;;;;0.63;0.60;;;24.10;27.10;;;;;;4983401;28;20046;-60
2023/03/12 12:20:11;;;;;;;0.93;0.73;;;24.10;27.10;;;;;;4997002;28;20046;-60
2023/03/12 12:22:52;;;;;;;0.88;0.63;;;24.10;27.10;;;;;;4996276;28;20058;-60
2023/03/12 12:25:57;;;;;;;0.70;0.47;;;24.10;27.20;;;;;;4980111;28;20054;-59
2023/03/12 12:28:44;;;;;;;0.60;0.60;;;24.10;27.10;;;;;;4996709;28;20484;-60
2023/03/12 12:31:48;;;;;;;0.65;0.65;;;24.10;27.10;;;;;;4996615;28;20065;-61
2023/03/12 12:34:44;;;;;;;0.93;0.75;;;24.10;27.00;;;;;;4996614;28;20058;-60
2023/03/12 12:37:43;;;;;;;0.63;0.63;;;24.10;27.10;;;;;;4996632;28;20125;-59
2023/03/12 12:40:21;;;;;;;1.00;0.68;;;24.20;27.10;;;;;;4996722;28;20046;-60
2023/03/12 12:43:22;;;;;;;0.55;0.55;;;24.20;27.10;;;;;;4996264;28;20055;-59
2023/03/12 12:45:52;;;;;;;0.60;0.60;;;24.20;27.10;;;;;;4996814;28;20050;-60
2023/03/12 12:48:33;;;;;;;1.02;0.50;;;24.20;27.10;;;;;;4996144;28;20054;-60
2023/03/12 12:51:02;;;;;;;1.35;1.00;;;24.10;27.10;;;;;;4996509;28;20093;-59
2023/03/12 12:53:55;;;;;;;0.60;0.60;;;24.20;27.10;;;;;;4979057;28;20061;-59
2023/03/12 12:56:45;;;;;;;0.52;0.52;;;24.20;27.10;;;;;;4982327;28;20052;-59
2023/03/12 12:59:39;;;;;;;1.00;0.60;;;24.20;27.00;;;;;;4995588;28;20129;-60
2023/03/12 13:02:28;;;;;;;0.70;0.70;;;24.10;27.00;;;;;;4983190;28;20125;-59
2023/03/12 13:04:57;;;;;;;1.05;0.60;;;24.20;27.00;;;;;;4984681;28;20053;-60
2023/03/12 13:07:32;;;;;;;0.57;0.43;;;24.20;27.00;;;;;;4976609;28;20546;-60
2023/03/12 13:10:04;;;;;;;0.95;0.65;;;24.20;27.00;;;;;;4976494;28;20507;-60
2023/03/12 13:12:46;;;;;;;0.50;0.50;;;24.20;27.00;;;;;;4959437;28;20150;-60
2023/03/12 13:15:38;;;;;;;1.75;0.30;;;24.20;27.00;;;;;;4975644;28;20054;-60